sensor_id;sensor_type;location;lat;lon;timestamp;P1;durP1;ratioP1;P2;durP2;ratioP2
44276;SDS011;29973;43.742;1.236;2023-11-25T00:00:46;12.60;;;6.88;;
44276;SDS011;29973;43.742;1.236;2023-11-25T00:03:13;15.07;;;10.50;;
44276;SDS011;29973;43.742;1.236;2023-11-25T00:05:39;11.55;;;10.48;;
44276;SDS011;29973;43.742;1.236;2023-11-25T00:08:06;12.52;;;11.40;;
44276;SDS011;29973;43.742;1.236;2023-11-25T00:10:32;14.48;;;12.10;;
44276;SDS011;29973;43.742;1.236;2023-11-25T00:12:58;12.38;;;9.88;;
44276;SDS011;29973;43.742;1.236;2023-11-25T00:15:24;8.45;;;6.78;;
44276;SDS011;29973;43.742;1.236;2023-11-25T00:17:53;16.30;;;12.43;;
44276;SDS011;29973;43.742;1.236;2023-11-25T00:20:20;11.95;;;10.80;;
44276;SDS011;29973;43.742;1.236;2023-11-25T00:22:46;12.60;;;11.10;;
44276;SDS011;29973;43.742;1.236;2023-11-25T00:25:12;10.00;;;8.88;;
44276;SDS011;29973;43.742;1.236;2023-11-25T00:27:39;9.55;;;8.63;;
44276;SDS011;29973;43.742;1.236;2023-11-25T00:30:05;12.45;;;11.20;;
44276;SDS011;29973;43.742;1.236;2023-11-25T00:32:32;12.38;;;11.18;;
44276;SDS011;29973;43.742;1.236;2023-11-25T00:35:05;12.82;;;11.00;;
44276;SDS011;29973;43.742;1.236;2023-11-25T00:37:31;9.95;;;7.50;;
44276;SDS011;29973;43.742;1.236;2023-11-25T00:39:57;18.10;;;9.10;;
44276;SDS011;29973;43.742;1.236;2023-11-25T00:42:24;10.95;;;9.85;;
44276;SDS011;29973;43.742;1.236;2023-11-25T00:44:50;10.15;;;8.68;;
44276;SDS011;29973;43.742;1.236;2023-11-25T00:47:16;11.80;;;10.27;;
44276;SDS011;29973;43.742;1.236;2023-11-25T00:49:44;10.57;;;9.60;;
44276;SDS011;29973;43.742;1.236;2023-11-25T00:52:13;9.77;;;8.77;;
44276;SDS011;29973;43.742;1.236;2023-11-25T00:54:39;9.43;;;8.63;;
44276;SDS011;29973;43.742;1.236;2023-11-25T00:57:05;11.75;;;9.98;;
44276;SDS011;29973;43.742;1.236;2023-11-25T00:59:30;11.20;;;10.20;;
44276;SDS011;29973;43.742;1.236;2023-11-25T01:01:56;9.50;;;8.70;;
44276;SDS011;29973;43.742;1.236;2023-11-25T01:04:22;10.70;;;7.45;;
44276;SDS011;29973;43.742;1.236;2023-11-25T01:06:48;10.43;;;9.55;;
44276;SDS011;29973;43.742;1.236;2023-11-25T01:09:14;10.07;;;9.27;;
44276;SDS011;29973;43.742;1.236;2023-11-25T01:11:47;10.25;;;9.32;;
44276;SDS011;29973;43.742;1.236;2023-11-25T01:14:13;11.10;;;10.23;;
44276;SDS011;29973;43.742;1.236;2023-11-25T01:16:39;7.88;;;7.07;;
44276;SDS011;29973;43.742;1.236;2023-11-25T01:19:05;10.40;;;9.43;;
44276;SDS011;29973;43.742;1.236;2023-11-25T01:21:31;5.93;;;5.07;;
44276;SDS011;29973;43.742;1.236;2023-11-25T01:23:57;7.65;;;6.95;;
44276;SDS011;29973;43.742;1.236;2023-11-25T01:26:23;9.57;;;6.35;;
44276;SDS011;29973;43.742;1.236;2023-11-25T01:28:48;11.40;;;10.50;;
44276;SDS011;29973;43.742;1.236;2023-11-25T01:31:14;13.43;;;9.75;;
44276;SDS011;29973;43.742;1.236;2023-11-25T01:33:40;10.45;;;9.48;;
44276;SDS011;29973;43.742;1.236;2023-11-25T01:36:06;12.10;;;9.50;;
44276;SDS011;29973;43.742;1.236;2023-11-25T01:38:36;13.75;;;12.15;;
44276;SDS011;29973;43.742;1.236;2023-11-25T01:41:03;11.50;;;9.98;;
44276;SDS011;29973;43.742;1.236;2023-11-25T01:43:29;11.55;;;10.52;;
44276;SDS011;29973;43.742;1.236;2023-11-25T01:45:56;12.00;;;9.43;;
44276;SDS011;29973;43.742;1.236;2023-11-25T01:48:22;9.90;;;9.00;;
44276;SDS011;29973;43.742;1.236;2023-11-25T01:50:49;14.70;;;9.70;;
44276;SDS011;29973;43.742;1.236;2023-11-25T01:53:15;13.50;;;9.95;;
44276;SDS011;29973;43.742;1.236;2023-11-25T01:55:44;12.20;;;10.65;;
44276;SDS011;29973;43.742;1.236;2023-11-25T01:58:12;13.00;;;11.70;;
44276;SDS011;29973;43.742;1.236;2023-11-25T02:00:42;10.60;;;9.50;;
44276;SDS011;29973;43.742;1.236;2023-11-25T02:03:09;11.73;;;10.63;;
44276;SDS011;29973;43.742;1.236;2023-11-25T02:05:36;13.95;;;12.50;;
44276;SDS011;29973;43.742;1.236;2023-11-25T02:08:01;12.68;;;10.90;;
44276;SDS011;29973;43.742;1.236;2023-11-25T02:10:27;12.18;;;10.93;;
44276;SDS011;29973;43.742;1.236;2023-11-25T02:12:53;11.43;;;10.45;;
44276;SDS011;29973;43.742;1.236;2023-11-25T02:15:19;12.68;;;11.35;;
44276;SDS011;29973;43.742;1.236;2023-11-25T02:17:45;14.77;;;9.45;;
44276;SDS011;29973;43.742;1.236;2023-11-25T02:20:11;15.75;;;10.80;;
44276;SDS011;29973;43.742;1.236;2023-11-25T02:22:50;13.52;;;10.75;;
44276;SDS011;29973;43.742;1.236;2023-11-25T02:25:22;13.02;;;7.47;;
44276;SDS011;29973;43.742;1.236;2023-11-25T02:27:48;15.02;;;12.02;;
44276;SDS011;29973;43.742;1.236;2023-11-25T02:30:14;13.88;;;10.27;;
44276;SDS011;29973;43.742;1.236;2023-11-25T02:32:41;19.98;;;11.43;;
44276;SDS011;29973;43.742;1.236;2023-11-25T02:35:06;22.83;;;13.38;;
44276;SDS011;29973;43.742;1.236;2023-11-25T02:37:32;17.00;;;12.60;;
44276;SDS011;29973;43.742;1.236;2023-11-25T02:39:59;16.50;;;12.60;;
44276;SDS011;29973;43.742;1.236;2023-11-25T02:42:25;21.17;;;13.45;;
44276;SDS011;29973;43.742;1.236;2023-11-25T02:44:51;20.05;;;12.55;;
44276;SDS011;29973;43.742;1.236;2023-11-25T02:47:16;21.52;;;12.40;;
44276;SDS011;29973;43.742;1.236;2023-11-25T02:49:43;16.88;;;12.15;;
44276;SDS011;29973;43.742;1.236;2023-11-25T02:52:09;26.25;;;12.48;;
44276;SDS011;29973;43.742;1.236;2023-11-25T02:54:34;15.23;;;12.07;;
44276;SDS011;29973;43.742;1.236;2023-11-25T02:57:00;18.70;;;9.52;;
44276;SDS011;29973;43.742;1.236;2023-11-25T02:59:26;18.88;;;12.13;;
44276;SDS011;29973;43.742;1.236;2023-11-25T03:01:52;16.85;;;9.35;;
44276;SDS011;29973;43.742;1.236;2023-11-25T03:04:18;20.38;;;12.45;;
44276;SDS011;29973;43.742;1.236;2023-11-25T03:06:48;21.65;;;13.70;;
44276;SDS011;29973;43.742;1.236;2023-11-25T03:09:16;25.23;;;13.30;;
44276;SDS011;29973;43.742;1.236;2023-11-25T03:11:42;13.43;;;7.25;;
44276;SDS011;29973;43.742;1.236;2023-11-25T03:14:08;20.67;;;10.30;;
44276;SDS011;29973;43.742;1.236;2023-11-25T03:16:34;18.90;;;12.80;;
44276;SDS011;29973;43.742;1.236;2023-11-25T03:19:00;21.48;;;12.27;;
44276;SDS011;29973;43.742;1.236;2023-11-25T03:21:27;26.85;;;13.57;;
44276;SDS011;29973;43.742;1.236;2023-11-25T03:23:54;20.70;;;12.40;;
44276;SDS011;29973;43.742;1.236;2023-11-25T03:26:19;15.57;;;10.52;;
44276;SDS011;29973;43.742;1.236;2023-11-25T03:28:46;14.57;;;9.55;;
44276;SDS011;29973;43.742;1.236;2023-11-25T03:31:13;26.02;;;13.00;;
44276;SDS011;29973;43.742;1.236;2023-11-25T03:33:38;16.13;;;10.15;;
44276;SDS011;29973;43.742;1.236;2023-11-25T03:36:04;19.13;;;10.82;;
44276;SDS011;29973;43.742;1.236;2023-11-25T03:38:30;22.23;;;10.93;;
44276;SDS011;29973;43.742;1.236;2023-11-25T03:40:56;21.42;;;10.30;;
44276;SDS011;29973;43.742;1.236;2023-11-25T03:43:22;14.68;;;8.52;;
44276;SDS011;29973;43.742;1.236;2023-11-25T03:45:48;17.92;;;8.40;;
44276;SDS011;29973;43.742;1.236;2023-11-25T03:48:15;17.70;;;9.40;;
44276;SDS011;29973;43.742;1.236;2023-11-25T03:50:41;24.40;;;8.02;;
44276;SDS011;29973;43.742;1.236;2023-11-25T03:53:07;13.80;;;8.90;;
44276;SDS011;29973;43.742;1.236;2023-11-25T03:55:33;18.45;;;9.23;;
44276;SDS011;29973;43.742;1.236;2023-11-25T03:57:59;24.48;;;7.78;;
44276;SDS011;29973;43.742;1.236;2023-11-25T04:00:26;17.85;;;6.85;;
44276;SDS011;29973;43.742;1.236;2023-11-25T04:02:52;18.45;;;8.75;;
44276;SDS011;29973;43.742;1.236;2023-11-25T04:05:18;18.08;;;8.10;;
44276;SDS011;29973;43.742;1.236;2023-11-25T04:07:44;15.98;;;7.95;;
44276;SDS011;29973;43.742;1.236;2023-11-25T04:10:10;16.83;;;7.40;;
44276;SDS011;29973;43.742;1.236;2023-11-25T04:12:44;15.57;;;7.07;;
44276;SDS011;29973;43.742;1.236;2023-11-25T04:15:11;17.60;;;7.43;;
44276;SDS011;29973;43.742;1.236;2023-11-25T04:17:39;15.00;;;7.55;;
44276;SDS011;29973;43.742;1.236;2023-11-25T04:20:08;18.23;;;7.03;;
44276;SDS011;29973;43.742;1.236;2023-11-25T04:22:47;17.23;;;7.05;;
44276;SDS011;29973;43.742;1.236;2023-11-25T04:25:13;19.27;;;7.07;;
44276;SDS011;29973;43.742;1.236;2023-11-25T04:27:44;14.93;;;6.07;;
44276;SDS011;29973;43.742;1.236;2023-11-25T04:30:15;15.63;;;6.78;;
44276;SDS011;29973;43.742;1.236;2023-11-25T04:32:42;16.25;;;7.20;;
44276;SDS011;29973;43.742;1.236;2023-11-25T04:35:09;18.45;;;7.93;;
44276;SDS011;29973;43.742;1.236;2023-11-25T04:37:35;14.52;;;5.72;;
44276;SDS011;29973;43.742;1.236;2023-11-25T04:40:02;13.82;;;5.80;;
44276;SDS011;29973;43.742;1.236;2023-11-25T04:42:36;12.80;;;5.32;;
44276;SDS011;29973;43.742;1.236;2023-11-25T04:45:02;17.52;;;5.97;;
44276;SDS011;29973;43.742;1.236;2023-11-25T04:47:28;15.50;;;5.68;;
44276;SDS011;29973;43.742;1.236;2023-11-25T04:49:54;19.77;;;6.20;;
44276;SDS011;29973;43.742;1.236;2023-11-25T04:52:20;14.10;;;5.50;;
44276;SDS011;29973;43.742;1.236;2023-11-25T04:54:46;19.02;;;5.18;;
44276;SDS011;29973;43.742;1.236;2023-11-25T04:57:12;15.82;;;5.50;;
44276;SDS011;29973;43.742;1.236;2023-11-25T04:59:38;15.15;;;5.20;;
44276;SDS011;29973;43.742;1.236;2023-11-25T05:02:04;17.27;;;5.43;;
44276;SDS011;29973;43.742;1.236;2023-11-25T05:04:30;22.38;;;5.75;;
44276;SDS011;29973;43.742;1.236;2023-11-25T05:06:56;19.88;;;5.13;;
44276;SDS011;29973;43.742;1.236;2023-11-25T05:09:21;10.02;;;4.65;;
44276;SDS011;29973;43.742;1.236;2023-11-25T05:11:51;22.65;;;5.88;;
44276;SDS011;29973;43.742;1.236;2023-11-25T05:14:17;14.30;;;5.10;;
44276;SDS011;29973;43.742;1.236;2023-11-25T05:16:43;13.45;;;4.65;;
44276;SDS011;29973;43.742;1.236;2023-11-25T05:19:09;13.85;;;5.68;;
44276;SDS011;29973;43.742;1.236;2023-11-25T05:21:35;20.23;;;5.85;;
44276;SDS011;29973;43.742;1.236;2023-11-25T05:24:00;14.98;;;5.78;;
44276;SDS011;29973;43.742;1.236;2023-11-25T05:26:28;20.75;;;6.43;;
44276;SDS011;29973;43.742;1.236;2023-11-25T05:28:54;17.60;;;5.38;;
44276;SDS011;29973;43.742;1.236;2023-11-25T05:31:19;15.20;;;4.68;;
44276;SDS011;29973;43.742;1.236;2023-11-25T05:33:48;17.20;;;4.30;;
44276;SDS011;29973;43.742;1.236;2023-11-25T05:36:14;19.95;;;4.32;;
44276;SDS011;29973;43.742;1.236;2023-11-25T05:38:39;13.65;;;4.47;;
44276;SDS011;29973;43.742;1.236;2023-11-25T05:41:05;10.70;;;4.50;;
44276;SDS011;29973;43.742;1.236;2023-11-25T05:43:33;19.83;;;4.68;;
44276;SDS011;29973;43.742;1.236;2023-11-25T05:45:59;11.20;;;4.72;;
44276;SDS011;29973;43.742;1.236;2023-11-25T05:48:25;11.77;;;4.30;;
44276;SDS011;29973;43.742;1.236;2023-11-25T05:50:52;14.90;;;4.13;;
44276;SDS011;29973;43.742;1.236;2023-11-25T05:53:18;13.55;;;4.80;;
44276;SDS011;29973;43.742;1.236;2023-11-25T05:55:43;16.25;;;4.20;;
44276;SDS011;29973;43.742;1.236;2023-11-25T05:58:09;17.50;;;5.93;;
44276;SDS011;29973;43.742;1.236;2023-11-25T06:00:35;19.40;;;5.57;;
44276;SDS011;29973;43.742;1.236;2023-11-25T06:03:00;13.82;;;6.07;;
44276;SDS011;29973;43.742;1.236;2023-11-25T06:05:26;11.07;;;4.72;;
44276;SDS011;29973;43.742;1.236;2023-11-25T06:07:54;16.05;;;5.90;;
44276;SDS011;29973;43.742;1.236;2023-11-25T06:10:20;21.67;;;5.22;;
44276;SDS011;29973;43.742;1.236;2023-11-25T06:12:48;9.63;;;4.57;;
44276;SDS011;29973;43.742;1.236;2023-11-25T06:15:13;23.60;;;5.45;;
44276;SDS011;29973;43.742;1.236;2023-11-25T06:17:40;21.42;;;5.90;;
44276;SDS011;29973;43.742;1.236;2023-11-25T06:20:08;18.98;;;4.95;;
44276;SDS011;29973;43.742;1.236;2023-11-25T06:22:34;15.48;;;5.43;;
44276;SDS011;29973;43.742;1.236;2023-11-25T06:25:00;13.20;;;4.68;;
44276;SDS011;29973;43.742;1.236;2023-11-25T06:27:29;11.55;;;4.68;;
44276;SDS011;29973;43.742;1.236;2023-11-25T06:29:55;12.13;;;4.45;;
44276;SDS011;29973;43.742;1.236;2023-11-25T06:32:22;21.13;;;4.50;;
44276;SDS011;29973;43.742;1.236;2023-11-25T06:34:50;11.05;;;5.22;;
44276;SDS011;29973;43.742;1.236;2023-11-25T06:37:16;9.70;;;4.40;;
44276;SDS011;29973;43.742;1.236;2023-11-25T06:39:42;13.50;;;4.78;;
44276;SDS011;29973;43.742;1.236;2023-11-25T06:42:07;17.05;;;5.47;;
44276;SDS011;29973;43.742;1.236;2023-11-25T06:44:34;15.13;;;5.30;;
44276;SDS011;29973;43.742;1.236;2023-11-25T06:47:00;16.00;;;5.75;;
44276;SDS011;29973;43.742;1.236;2023-11-25T06:49:26;7.20;;;4.22;;
44276;SDS011;29973;43.742;1.236;2023-11-25T06:51:52;9.60;;;5.15;;
44276;SDS011;29973;43.742;1.236;2023-11-25T06:54:18;11.30;;;5.60;;
44276;SDS011;29973;43.742;1.236;2023-11-25T06:56:44;8.45;;;5.72;;
44276;SDS011;29973;43.742;1.236;2023-11-25T06:59:10;12.63;;;5.97;;
44276;SDS011;29973;43.742;1.236;2023-11-25T07:01:35;13.70;;;6.57;;
44276;SDS011;29973;43.742;1.236;2023-11-25T07:04:04;13.77;;;6.70;;
44276;SDS011;29973;43.742;1.236;2023-11-25T07:06:30;14.45;;;6.50;;
44276;SDS011;29973;43.742;1.236;2023-11-25T07:08:56;13.32;;;5.18;;
44276;SDS011;29973;43.742;1.236;2023-11-25T07:11:25;12.07;;;4.90;;
44276;SDS011;29973;43.742;1.236;2023-11-25T07:13:52;11.50;;;5.22;;
44276;SDS011;29973;43.742;1.236;2023-11-25T07:16:19;9.32;;;5.65;;
44276;SDS011;29973;43.742;1.236;2023-11-25T07:18:47;10.93;;;5.80;;
44276;SDS011;29973;43.742;1.236;2023-11-25T07:21:14;11.65;;;5.75;;
44276;SDS011;29973;43.742;1.236;2023-11-25T07:23:40;14.57;;;6.85;;
44276;SDS011;29973;43.742;1.236;2023-11-25T07:26:08;19.30;;;7.25;;
44276;SDS011;29973;43.742;1.236;2023-11-25T07:28:37;11.05;;;6.63;;
44276;SDS011;29973;43.742;1.236;2023-11-25T07:31:03;11.75;;;7.05;;
44276;SDS011;29973;43.742;1.236;2023-11-25T07:33:29;7.88;;;7.07;;
44276;SDS011;29973;43.742;1.236;2023-11-25T07:35:55;14.85;;;8.00;;
44276;SDS011;29973;43.742;1.236;2023-11-25T07:38:22;13.65;;;8.10;;
44276;SDS011;29973;43.742;1.236;2023-11-25T07:40:48;19.85;;;8.70;;
44276;SDS011;29973;43.742;1.236;2023-11-25T07:43:14;17.20;;;9.10;;
44276;SDS011;29973;43.742;1.236;2023-11-25T07:45:40;14.82;;;8.90;;
44276;SDS011;29973;43.742;1.236;2023-11-25T07:48:06;14.57;;;9.73;;
44276;SDS011;29973;43.742;1.236;2023-11-25T07:50:33;10.32;;;8.85;;
44276;SDS011;29973;43.742;1.236;2023-11-25T07:53:00;11.68;;;8.35;;
44276;SDS011;29973;43.742;1.236;2023-11-25T07:55:26;15.57;;;9.13;;
44276;SDS011;29973;43.742;1.236;2023-11-25T07:57:52;20.30;;;9.52;;
44276;SDS011;29973;43.742;1.236;2023-11-25T08:00:18;17.15;;;9.25;;
44276;SDS011;29973;43.742;1.236;2023-11-25T08:02:45;20.20;;;8.95;;
44276;SDS011;29973;43.742;1.236;2023-11-25T08:05:12;17.95;;;8.90;;
44276;SDS011;29973;43.742;1.236;2023-11-25T08:07:47;20.80;;;8.57;;
44276;SDS011;29973;43.742;1.236;2023-11-25T08:10:14;11.98;;;8.82;;
44276;SDS011;29973;43.742;1.236;2023-11-25T08:12:41;17.42;;;9.48;;
44276;SDS011;29973;43.742;1.236;2023-11-25T08:15:07;17.88;;;9.40;;
44276;SDS011;29973;43.742;1.236;2023-11-25T08:17:34;27.77;;;7.15;;
44276;SDS011;29973;43.742;1.236;2023-11-25T08:20:01;16.65;;;7.85;;
44276;SDS011;29973;43.742;1.236;2023-11-25T08:22:30;20.13;;;6.90;;
44276;SDS011;29973;43.742;1.236;2023-11-25T08:24:56;11.13;;;7.45;;
44276;SDS011;29973;43.742;1.236;2023-11-25T08:27:24;11.27;;;5.97;;
44276;SDS011;29973;43.742;1.236;2023-11-25T08:29:49;10.43;;;4.47;;
44276;SDS011;29973;43.742;1.236;2023-11-25T08:32:15;14.07;;;5.03;;
44276;SDS011;29973;43.742;1.236;2023-11-25T08:34:41;7.70;;;4.13;;
44276;SDS011;29973;43.742;1.236;2023-11-25T08:37:07;9.68;;;4.57;;
44276;SDS011;29973;43.742;1.236;2023-11-25T08:39:33;4.00;;;2.95;;
44276;SDS011;29973;43.742;1.236;2023-11-25T08:42:01;13.95;;;3.35;;
44276;SDS011;29973;43.742;1.236;2023-11-25T08:44:27;8.55;;;3.42;;
44276;SDS011;29973;43.742;1.236;2023-11-25T08:46:53;7.32;;;3.83;;
44276;SDS011;29973;43.742;1.236;2023-11-25T08:49:21;13.93;;;4.68;;
44276;SDS011;29973;43.742;1.236;2023-11-25T08:51:49;8.45;;;3.83;;
44276;SDS011;29973;43.742;1.236;2023-11-25T08:54:16;12.25;;;4.53;;
44276;SDS011;29973;43.742;1.236;2023-11-25T08:56:45;9.93;;;4.20;;
44276;SDS011;29973;43.742;1.236;2023-11-25T08:59:12;14.90;;;3.83;;
44276;SDS011;29973;43.742;1.236;2023-11-25T09:01:43;10.65;;;2.88;;
44276;SDS011;29973;43.742;1.236;2023-11-25T09:04:09;8.18;;;2.90;;
44276;SDS011;29973;43.742;1.236;2023-11-25T09:06:39;4.68;;;2.28;;
44276;SDS011;29973;43.742;1.236;2023-11-25T09:09:05;10.73;;;3.50;;
44276;SDS011;29973;43.742;1.236;2023-11-25T09:11:35;6.10;;;1.92;;
44276;SDS011;29973;43.742;1.236;2023-11-25T09:14:01;6.55;;;1.75;;
44276;SDS011;29973;43.742;1.236;2023-11-25T09:16:29;7.97;;;2.03;;
44276;SDS011;29973;43.742;1.236;2023-11-25T09:18:54;3.47;;;1.70;;
44276;SDS011;29973;43.742;1.236;2023-11-25T09:21:20;6.53;;;1.80;;
44276;SDS011;29973;43.742;1.236;2023-11-25T09:23:46;7.63;;;1.92;;
44276;SDS011;29973;43.742;1.236;2023-11-25T09:26:11;7.60;;;2.72;;
44276;SDS011;29973;43.742;1.236;2023-11-25T09:28:37;8.68;;;3.42;;
44276;SDS011;29973;43.742;1.236;2023-11-25T09:31:03;10.88;;;4.13;;
44276;SDS011;29973;43.742;1.236;2023-11-25T09:33:29;8.00;;;2.45;;
44276;SDS011;29973;43.742;1.236;2023-11-25T09:35:55;13.85;;;3.67;;
44276;SDS011;29973;43.742;1.236;2023-11-25T09:38:21;10.63;;;2.58;;
44276;SDS011;29973;43.742;1.236;2023-11-25T09:40:47;17.80;;;5.65;;
44276;SDS011;29973;43.742;1.236;2023-11-25T09:43:13;12.38;;;4.38;;
44276;SDS011;29973;43.742;1.236;2023-11-25T09:45:40;13.88;;;3.10;;
44276;SDS011;29973;43.742;1.236;2023-11-25T09:48:06;10.13;;;2.45;;
44276;SDS011;29973;43.742;1.236;2023-11-25T09:50:32;10.18;;;3.70;;
44276;SDS011;29973;43.742;1.236;2023-11-25T09:52:59;12.05;;;5.07;;
44276;SDS011;29973;43.742;1.236;2023-11-25T09:55:34;8.10;;;4.15;;
44276;SDS011;29973;43.742;1.236;2023-11-25T09:58:04;5.60;;;2.67;;
44276;SDS011;29973;43.742;1.236;2023-11-25T10:00:35;6.30;;;2.55;;
44276;SDS011;29973;43.742;1.236;2023-11-25T10:03:03;8.20;;;2.92;;
44276;SDS011;29973;43.742;1.236;2023-11-25T10:05:33;6.53;;;2.50;;
44276;SDS011;29973;43.742;1.236;2023-11-25T10:07:59;12.15;;;4.60;;
44276;SDS011;29973;43.742;1.236;2023-11-25T10:10:25;8.18;;;2.42;;
44276;SDS011;29973;43.742;1.236;2023-11-25T10:12:53;9.88;;;3.58;;
44276;SDS011;29973;43.742;1.236;2023-11-25T10:15:19;16.45;;;4.90;;
44276;SDS011;29973;43.742;1.236;2023-11-25T10:17:47;15.07;;;5.60;;
44276;SDS011;29973;43.742;1.236;2023-11-25T10:20:13;13.63;;;4.88;;
44276;SDS011;29973;43.742;1.236;2023-11-25T10:22:45;11.30;;;3.20;;
44276;SDS011;29973;43.742;1.236;2023-11-25T10:25:18;7.03;;;2.90;;
44276;SDS011;29973;43.742;1.236;2023-11-25T10:27:44;9.27;;;3.20;;
44276;SDS011;29973;43.742;1.236;2023-11-25T10:30:12;6.95;;;2.58;;
44276;SDS011;29973;43.742;1.236;2023-11-25T10:32:39;8.35;;;2.60;;
44276;SDS011;29973;43.742;1.236;2023-11-25T10:35:06;6.80;;;2.70;;
44276;SDS011;29973;43.742;1.236;2023-11-25T10:37:33;5.63;;;2.70;;
44276;SDS011;29973;43.742;1.236;2023-11-25T10:40:00;8.10;;;2.20;;
44276;SDS011;29973;43.742;1.236;2023-11-25T10:42:26;9.32;;;2.28;;
44276;SDS011;29973;43.742;1.236;2023-11-25T10:44:53;8.65;;;2.58;;
44276;SDS011;29973;43.742;1.236;2023-11-25T10:47:31;8.13;;;2.28;;
44276;SDS011;29973;43.742;1.236;2023-11-25T10:49:58;6.63;;;2.20;;
44276;SDS011;29973;43.742;1.236;2023-11-25T10:52:31;7.85;;;3.65;;
44276;SDS011;29973;43.742;1.236;2023-11-25T10:54:58;3.85;;;1.70;;
44276;SDS011;29973;43.742;1.236;2023-11-25T10:57:24;5.00;;;1.50;;
44276;SDS011;29973;43.742;1.236;2023-11-25T10:59:53;6.28;;;1.85;;
44276;SDS011;29973;43.742;1.236;2023-11-25T11:02:27;5.47;;;2.05;;
44276;SDS011;29973;43.742;1.236;2023-11-25T11:04:56;5.30;;;1.80;;
44276;SDS011;29973;43.742;1.236;2023-11-25T11:07:26;7.65;;;1.50;;
44276;SDS011;29973;43.742;1.236;2023-11-25T11:09:56;5.82;;;2.00;;
44276;SDS011;29973;43.742;1.236;2023-11-25T11:12:33;4.50;;;1.92;;
44276;SDS011;29973;43.742;1.236;2023-11-25T11:15:11;8.93;;;2.20;;
44276;SDS011;29973;43.742;1.236;2023-11-25T11:20:11;3.58;;;1.50;;
44276;SDS011;29973;43.742;1.236;2023-11-25T11:22:41;3.60;;;1.63;;
44276;SDS011;29973;43.742;1.236;2023-11-25T11:25:18;6.95;;;2.20;;
44276;SDS011;29973;43.742;1.236;2023-11-25T11:30:40;4.15;;;1.95;;
44276;SDS011;29973;43.742;1.236;2023-11-25T11:33:14;3.05;;;1.65;;
44276;SDS011;29973;43.742;1.236;2023-11-25T11:35:41;6.57;;;1.70;;
44276;SDS011;29973;43.742;1.236;2023-11-25T11:38:25;6.05;;;1.90;;
44276;SDS011;29973;43.742;1.236;2023-11-25T11:40:58;3.60;;;1.67;;
44276;SDS011;29973;43.742;1.236;2023-11-25T11:44:03;7.40;;;2.05;;
44276;SDS011;29973;43.742;1.236;2023-11-25T11:46:33;4.28;;;1.98;;
44276;SDS011;29973;43.742;1.236;2023-11-25T11:49:07;5.78;;;2.40;;
44276;SDS011;29973;43.742;1.236;2023-11-25T11:51:34;3.13;;;1.53;;
44276;SDS011;29973;43.742;1.236;2023-11-25T11:57:03;5.57;;;2.10;;
44276;SDS011;29973;43.742;1.236;2023-11-25T11:59:58;3.28;;;1.45;;
44276;SDS011;29973;43.742;1.236;2023-11-25T12:02:27;7.78;;;2.05;;
44276;SDS011;29973;43.742;1.236;2023-11-25T12:04:54;4.57;;;1.75;;
44276;SDS011;29973;43.742;1.236;2023-11-25T12:07:22;4.10;;;1.50;;
44276;SDS011;29973;43.742;1.236;2023-11-25T12:09:47;3.95;;;1.80;;
44276;SDS011;29973;43.742;1.236;2023-11-25T12:12:13;5.70;;;2.00;;
44276;SDS011;29973;43.742;1.236;2023-11-25T12:14:39;4.32;;;1.92;;
44276;SDS011;29973;43.742;1.236;2023-11-25T12:17:05;7.60;;;2.10;;
44276;SDS011;29973;43.742;1.236;2023-11-25T12:19:32;5.38;;;2.38;;
44276;SDS011;29973;43.742;1.236;2023-11-25T12:21:57;4.60;;;1.70;;
44276;SDS011;29973;43.742;1.236;2023-11-25T12:24:23;5.07;;;1.80;;
44276;SDS011;29973;43.742;1.236;2023-11-25T12:26:49;7.55;;;2.28;;
44276;SDS011;29973;43.742;1.236;2023-11-25T12:29:18;4.55;;;1.88;;
44276;SDS011;29973;43.742;1.236;2023-11-25T12:31:48;6.75;;;2.05;;
44276;SDS011;29973;43.742;1.236;2023-11-25T12:34:14;5.63;;;2.33;;
44276;SDS011;29973;43.742;1.236;2023-11-25T12:36:40;5.53;;;2.60;;
44276;SDS011;29973;43.742;1.236;2023-11-25T12:39:07;3.90;;;1.60;;
44276;SDS011;29973;43.742;1.236;2023-11-25T12:41:40;5.47;;;2.22;;
44276;SDS011;29973;43.742;1.236;2023-11-25T12:44:06;4.00;;;1.58;;
44276;SDS011;29973;43.742;1.236;2023-11-25T12:46:39;4.95;;;1.65;;
44276;SDS011;29973;43.742;1.236;2023-11-25T12:49:24;4.55;;;1.95;;
44276;SDS011;29973;43.742;1.236;2023-11-25T12:51:50;5.00;;;1.92;;
44276;SDS011;29973;43.742;1.236;2023-11-25T12:54:17;4.95;;;1.42;;
44276;SDS011;29973;43.742;1.236;2023-11-25T12:56:47;3.45;;;1.92;;
44276;SDS011;29973;43.742;1.236;2023-11-25T13:01:47;2.33;;;1.38;;
44276;SDS011;29973;43.742;1.236;2023-11-25T13:04:13;8.10;;;1.77;;
44276;SDS011;29973;43.742;1.236;2023-11-25T13:06:48;5.50;;;1.92;;
44276;SDS011;29973;43.742;1.236;2023-11-25T13:09:15;3.80;;;1.80;;
44276;SDS011;29973;43.742;1.236;2023-11-25T13:11:45;5.07;;;1.98;;
44276;SDS011;29973;43.742;1.236;2023-11-25T13:14:12;6.22;;;2.10;;
44276;SDS011;29973;43.742;1.236;2023-11-25T13:16:38;5.25;;;2.67;;
44276;SDS011;29973;43.742;1.236;2023-11-25T13:19:04;6.20;;;2.55;;
44276;SDS011;29973;43.742;1.236;2023-11-25T13:21:33;4.75;;;2.40;;
44276;SDS011;29973;43.742;1.236;2023-11-25T13:24:00;3.88;;;1.42;;
44276;SDS011;29973;43.742;1.236;2023-11-25T13:26:26;3.67;;;1.77;;
44276;SDS011;29973;43.742;1.236;2023-11-25T13:28:52;4.63;;;2.20;;
44276;SDS011;29973;43.742;1.236;2023-11-25T13:31:18;3.67;;;2.00;;
44276;SDS011;29973;43.742;1.236;2023-11-25T13:33:44;6.45;;;2.03;;
44276;SDS011;29973;43.742;1.236;2023-11-25T13:36:10;4.13;;;2.55;;
44276;SDS011;29973;43.742;1.236;2023-11-25T13:38:36;7.53;;;3.10;;
44276;SDS011;29973;43.742;1.236;2023-11-25T13:41:02;5.15;;;2.38;;
44276;SDS011;29973;43.742;1.236;2023-11-25T13:43:27;5.70;;;1.80;;
44276;SDS011;29973;43.742;1.236;2023-11-25T13:45:53;3.35;;;2.00;;
44276;SDS011;29973;43.742;1.236;2023-11-25T13:48:19;6.45;;;3.55;;
44276;SDS011;29973;43.742;1.236;2023-11-25T13:50:44;4.20;;;1.77;;
44276;SDS011;29973;43.742;1.236;2023-11-25T13:53:10;2.47;;;1.63;;
44276;SDS011;29973;43.742;1.236;2023-11-25T13:55:38;3.78;;;2.35;;
44276;SDS011;29973;43.742;1.236;2023-11-25T13:58:11;5.28;;;1.90;;
44276;SDS011;29973;43.742;1.236;2023-11-25T14:00:37;5.25;;;2.42;;
44276;SDS011;29973;43.742;1.236;2023-11-25T14:03:04;4.97;;;2.30;;
44276;SDS011;29973;43.742;1.236;2023-11-25T14:05:34;8.90;;;2.60;;
44276;SDS011;29973;43.742;1.236;2023-11-25T14:08:03;6.40;;;3.50;;
44276;SDS011;29973;43.742;1.236;2023-11-25T14:10:32;8.35;;;2.35;;
44276;SDS011;29973;43.742;1.236;2023-11-25T14:12:58;7.05;;;3.25;;
44276;SDS011;29973;43.742;1.236;2023-11-25T14:15:24;4.00;;;2.15;;
44276;SDS011;29973;43.742;1.236;2023-11-25T14:17:49;3.25;;;1.30;;
44276;SDS011;29973;43.742;1.236;2023-11-25T14:20:15;4.18;;;1.30;;
44276;SDS011;29973;43.742;1.236;2023-11-25T14:22:41;2.95;;;1.13;;
44276;SDS011;29973;43.742;1.236;2023-11-25T14:25:15;5.25;;;1.70;;
44276;SDS011;29973;43.742;1.236;2023-11-25T14:27:41;4.47;;;1.20;;
44276;SDS011;29973;43.742;1.236;2023-11-25T14:30:08;2.60;;;1.27;;
44276;SDS011;29973;43.742;1.236;2023-11-25T14:32:36;7.00;;;2.55;;
44276;SDS011;29973;43.742;1.236;2023-11-25T14:35:02;3.42;;;1.80;;
44276;SDS011;29973;43.742;1.236;2023-11-25T14:37:28;4.28;;;1.73;;
44276;SDS011;29973;43.742;1.236;2023-11-25T14:39:54;4.47;;;1.30;;
44276;SDS011;29973;43.742;1.236;2023-11-25T14:42:20;3.95;;;1.23;;
44276;SDS011;29973;43.742;1.236;2023-11-25T14:44:49;4.28;;;1.52;;
44276;SDS011;29973;43.742;1.236;2023-11-25T14:47:20;3.58;;;1.50;;
44276;SDS011;29973;43.742;1.236;2023-11-25T14:49:47;4.60;;;1.50;;